sensor_id;sensor_type;location;lat;lon;timestamp;temperature;humidity
46758;DHT22;32509;47.750;-3.396;2024-02-16T00:00:26;12.40;99.90
46758;DHT22;32509;47.750;-3.396;2024-02-16T00:02:52;12.40;99.90
46758;DHT22;32509;47.750;-3.396;2024-02-16T00:05:18;12.40;99.90
46758;DHT22;32509;47.750;-3.396;2024-02-16T00:07:44;12.40;99.90
46758;DHT22;32509;47.750;-3.396;2024-02-16T00:10:10;12.40;99.90
46758;DHT22;32509;47.750;-3.396;2024-02-16T00:12:37;12.40;99.90
46758;DHT22;32509;47.750;-3.396;2024-02-16T00:15:05;12.40;99.90
46758;DHT22;32509;47.750;-3.396;2024-02-16T00:17:31;12.40;99.90
46758;DHT22;32509;47.750;-3.396;2024-02-16T00:19:59;12.40;99.90
46758;DHT22;32509;47.750;-3.396;2024-02-16T00:22:25;12.40;99.90
46758;DHT22;32509;47.750;-3.396;2024-02-16T00:24:51;12.40;99.90
46758;DHT22;32509;47.750;-3.396;2024-02-16T00:27:17;12.40;99.90
46758;DHT22;32509;47.750;-3.396;2024-02-16T00:29:43;12.40;99.90
46758;DHT22;32509;47.750;-3.396;2024-02-16T00:32:09;12.40;99.90
46758;DHT22;32509;47.750;-3.396;2024-02-16T00:34:36;12.30;99.90
46758;DHT22;32509;47.750;-3.396;2024-02-16T00:37:02;12.30;99.90
46758;DHT22;32509;47.750;-3.396;2024-02-16T00:39:30;12.30;99.90
46758;DHT22;32509;47.750;-3.396;2024-02-16T00:41:56;12.30;99.90
46758;DHT22;32509;47.750;-3.396;2024-02-16T00:44:22;12.30;99.90
46758;DHT22;32509;47.750;-3.396;2024-02-16T00:46:47;12.30;99.90
46758;DHT22;32509;47.750;-3.396;2024-02-16T00:49:13;12.30;99.90
46758;DHT22;32509;47.750;-3.396;2024-02-16T00:51:40;12.30;99.90
46758;DHT22;32509;47.750;-3.396;2024-02-16T00:54:06;12.30;99.90
46758;DHT22;32509;47.750;-3.396;2024-02-16T00:56:32;12.30;99.90
46758;DHT22;32509;47.750;-3.396;2024-02-16T00:58:58;12.30;99.90
46758;DHT22;32509;47.750;-3.396;2024-02-16T01:01:24;12.30;99.90
46758;DHT22;32509;47.750;-3.396;2024-02-16T01:03:52;12.30;99.90
46758;DHT22;32509;47.750;-3.396;2024-02-16T01:06:18;12.30;99.90
46758;DHT22;32509;47.750;-3.396;2024-02-16T01:08:44;12.30;99.90
46758;DHT22;32509;47.750;-3.396;2024-02-16T01:11:10;12.30;99.90
46758;DHT22;32509;47.750;-3.396;2024-02-16T01:13:36;12.30;99.90
46758;DHT22;32509;47.750;-3.396;2024-02-16T01:16:03;12.30;99.90
46758;DHT22;32509;47.750;-3.396;2024-02-16T01:18:29;12.30;99.90
46758;DHT22;32509;47.750;-3.396;2024-02-16T01:20:56;12.20;99.90
46758;DHT22;32509;47.750;-3.396;2024-02-16T01:23:22;12.30;99.90
46758;DHT22;32509;47.750;-3.396;2024-02-16T01:25:47;12.20;99.90
46758;DHT22;32509;47.750;-3.396;2024-02-16T01:28:14;12.20;99.90
46758;DHT22;32509;47.750;-3.396;2024-02-16T01:30:40;12.30;99.90
46758;DHT22;32509;47.750;-3.396;2024-02-16T01:33:06;12.20;99.90
46758;DHT22;32509;47.750;-3.396;2024-02-16T01:35:35;12.20;99.90
46758;DHT22;32509;47.750;-3.396;2024-02-16T01:38:01;12.20;99.90
46758;DHT22;32509;47.750;-3.396;2024-02-16T01:40:27;12.20;99.90
46758;DHT22;32509;47.750;-3.396;2024-02-16T01:42:54;12.20;99.90
46758;DHT22;32509;47.750;-3.396;2024-02-16T01:45:20;12.20;99.90
46758;DHT22;32509;47.750;-3.396;2024-02-16T01:47:49;12.20;99.90
46758;DHT22;32509;47.750;-3.396;2024-02-16T01:50:16;12.20;99.90
46758;DHT22;32509;47.750;-3.396;2024-02-16T01:52:46;12.10;99.90
46758;DHT22;32509;47.750;-3.396;2024-02-16T01:55:12;12.10;99.90
46758;DHT22;32509;47.750;-3.396;2024-02-16T01:57:46;12.20;99.90
46758;DHT22;32509;47.750;-3.396;2024-02-16T02:00:13;12.20;99.90
46758;DHT22;32509;47.750;-3.396;2024-02-16T02:02:41;12.20;99.90
46758;DHT22;32509;47.750;-3.396;2024-02-16T02:05:09;12.10;99.90
46758;DHT22;32509;47.750;-3.396;2024-02-16T02:07:35;12.10;99.90
46758;DHT22;32509;47.750;-3.396;2024-02-16T02:10:00;12.10;99.90
46758;DHT22;32509;47.750;-3.396;2024-02-16T02:12:26;12.10;99.90
46758;DHT22;32509;47.750;-3.396;2024-02-16T02:14:52;12.10;99.90
46758;DHT22;32509;47.750;-3.396;2024-02-16T02:17:18;12.10;99.90
46758;DHT22;32509;47.750;-3.396;2024-02-16T02:19:48;12.10;99.90
46758;DHT22;32509;47.750;-3.396;2024-02-16T02:22:20;12.10;99.90
46758;DHT22;32509;47.750;-3.396;2024-02-16T02:24:47;12.10;99.90
46758;DHT22;32509;47.750;-3.396;2024-02-16T02:27:14;12.10;99.90
46758;DHT22;32509;47.750;-3.396;2024-02-16T02:29:40;12.10;99.90
46758;DHT22;32509;47.750;-3.396;2024-02-16T02:32:07;12.10;99.90
46758;DHT22;32509;47.750;-3.396;2024-02-16T02:34:33;12.10;99.90
46758;DHT22;32509;47.750;-3.396;2024-02-16T02:36:59;12.10;99.90
46758;DHT22;32509;47.750;-3.396;2024-02-16T02:39:25;12.10;99.90
46758;DHT22;32509;47.750;-3.396;2024-02-16T02:41:51;12.20;99.90
46758;DHT22;32509;47.750;-3.396;2024-02-16T02:44:18;12.20;99.90
46758;DHT22;32509;47.750;-3.396;2024-02-16T02:46:45;12.20;99.90
46758;DHT22;32509;47.750;-3.396;2024-02-16T02:49:11;12.10;99.90
46758;DHT22;32509;47.750;-3.396;2024-02-16T02:51:36;12.10;99.90
46758;DHT22;32509;47.750;-3.396;2024-02-16T02:54:02;12.10;99.90
46758;DHT22;32509;47.750;-3.396;2024-02-16T02:56:28;12.20;99.90
46758;DHT22;32509;47.750;-3.396;2024-02-16T02:58:53;12.20;99.90
46758;DHT22;32509;47.750;-3.396;2024-02-16T03:01:19;12.20;99.90
46758;DHT22;32509;47.750;-3.396;2024-02-16T03:03:46;12.10;99.90
46758;DHT22;32509;47.750;-3.396;2024-02-16T03:06:12;12.20;99.90
46758;DHT22;32509;47.750;-3.396;2024-02-16T03:08:39;12.20;99.90
46758;DHT22;32509;47.750;-3.396;2024-02-16T03:11:05;12.20;99.90
46758;DHT22;32509;47.750;-3.396;2024-02-16T03:13:32;12.20;99.90
46758;DHT22;32509;47.750;-3.396;2024-02-16T03:15:57;12.10;99.90
46758;DHT22;32509;47.750;-3.396;2024-02-16T03:18:23;12.10;99.90
46758;DHT22;32509;47.750;-3.396;2024-02-16T03:20:49;12.10;99.90
46758;DHT22;32509;47.750;-3.396;2024-02-16T03:23:16;12.10;99.90
46758;DHT22;32509;47.750;-3.396;2024-02-16T03:25:42;12.10;99.90
46758;DHT22;32509;47.750;-3.396;2024-02-16T03:28:14;12.10;99.90
46758;DHT22;32509;47.750;-3.396;2024-02-16T03:30:42;12.10;99.90
46758;DHT22;32509;47.750;-3.396;2024-02-16T03:33:09;12.10;99.90
46758;DHT22;32509;47.750;-3.396;2024-02-16T03:35:35;12.00;99.90
46758;DHT22;32509;47.750;-3.396;2024-02-16T03:38:02;12.00;99.90
46758;DHT22;32509;47.750;-3.396;2024-02-16T03:40:28;12.00;99.90
46758;DHT22;32509;47.750;-3.396;2024-02-16T03:42:54;11.90;99.90
46758;DHT22;32509;47.750;-3.396;2024-02-16T03:45:20;11.90;99.90
46758;DHT22;32509;47.750;-3.396;2024-02-16T03:47:47;11.90;99.90
46758;DHT22;32509;47.750;-3.396;2024-02-16T03:50:14;11.80;99.90
46758;DHT22;32509;47.750;-3.396;2024-02-16T03:52:41;11.80;99.90
46758;DHT22;32509;47.750;-3.396;2024-02-16T03:55:07;11.80;99.90
46758;DHT22;32509;47.750;-3.396;2024-02-16T03:57:33;11.80;99.90
46758;DHT22;32509;47.750;-3.396;2024-02-16T03:59:59;11.80;99.90
46758;DHT22;32509;47.750;-3.396;2024-02-16T04:02:25;11.70;99.90
46758;DHT22;32509;47.750;-3.396;2024-02-16T04:04:51;11.70;99.90
46758;DHT22;32509;47.750;-3.396;2024-02-16T04:07:17;11.70;99.90
46758;DHT22;32509;47.750;-3.396;2024-02-16T04:09:43;11.70;99.90
46758;DHT22;32509;47.750;-3.396;2024-02-16T04:12:09;11.70;99.90
46758;DHT22;32509;47.750;-3.396;2024-02-16T04:14:35;11.60;99.90
46758;DHT22;32509;47.750;-3.396;2024-02-16T04:17:01;11.60;99.90
46758;DHT22;32509;47.750;-3.396;2024-02-16T04:19:27;11.60;99.90
46758;DHT22;32509;47.750;-3.396;2024-02-16T04:21:53;11.70;99.90
46758;DHT22;32509;47.750;-3.396;2024-02-16T04:24:19;11.70;99.90
46758;DHT22;32509;47.750;-3.396;2024-02-16T04:26:45;11.70;99.90
46758;DHT22;32509;47.750;-3.396;2024-02-16T04:29:11;11.70;99.90
46758;DHT22;32509;47.750;-3.396;2024-02-16T04:31:40;11.70;99.90
46758;DHT22;32509;47.750;-3.396;2024-02-16T04:34:08;11.70;99.90
46758;DHT22;32509;47.750;-3.396;2024-02-16T04:36:34;11.60;99.90
46758;DHT22;32509;47.750;-3.396;2024-02-16T04:39:00;11.60;99.90
46758;DHT22;32509;47.750;-3.396;2024-02-16T04:41:26;11.60;99.90
46758;DHT22;32509;47.750;-3.396;2024-02-16T04:43:52;11.60;99.90
46758;DHT22;32509;47.750;-3.396;2024-02-16T04:46:19;11.60;99.90
46758;DHT22;32509;47.750;-3.396;2024-02-16T04:48:45;11.60;99.90
46758;DHT22;32509;47.750;-3.396;2024-02-16T04:51:11;11.60;99.90
46758;DHT22;32509;47.750;-3.396;2024-02-16T04:53:37;11.60;99.90
46758;DHT22;32509;47.750;-3.396;2024-02-16T04:56:03;11.60;99.90
46758;DHT22;32509;47.750;-3.396;2024-02-16T04:58:30;11.50;99.90
46758;DHT22;32509;47.750;-3.396;2024-02-16T05:00:56;11.50;99.90
46758;DHT22;32509;47.750;-3.396;2024-02-16T05:03:23;11.50;99.90
46758;DHT22;32509;47.750;-3.396;2024-02-16T05:05:48;11.50;99.90
46758;DHT22;32509;47.750;-3.396;2024-02-16T05:08:14;11.50;99.90
46758;DHT22;32509;47.750;-3.396;2024-02-16T05:10:40;11.50;99.90
46758;DHT22;32509;47.750;-3.396;2024-02-16T05:13:06;11.50;99.90
46758;DHT22;32509;47.750;-3.396;2024-02-16T05:15:32;11.50;99.90
46758;DHT22;32509;47.750;-3.396;2024-02-16T05:17:58;11.40;99.90
46758;DHT22;32509;47.750;-3.396;2024-02-16T05:20:24;11.40;99.90
46758;DHT22;32509;47.750;-3.396;2024-02-16T05:22:50;11.40;99.90
46758;DHT22;32509;47.750;-3.396;2024-02-16T05:25:17;11.40;99.90
46758;DHT22;32509;47.750;-3.396;2024-02-16T05:27:44;11.40;99.90
46758;DHT22;32509;47.750;-3.396;2024-02-16T05:30:11;11.40;99.90
46758;DHT22;32509;47.750;-3.396;2024-02-16T05:32:40;11.40;99.90
46758;DHT22;32509;47.750;-3.396;2024-02-16T05:35:06;11.30;99.90
46758;DHT22;32509;47.750;-3.396;2024-02-16T05:37:47;11.30;99.90
46758;DHT22;32509;47.750;-3.396;2024-02-16T05:40:19;11.40;99.90
46758;DHT22;32509;47.750;-3.396;2024-02-16T05:42:49;11.30;99.90
46758;DHT22;32509;47.750;-3.396;2024-02-16T05:45:15;11.30;99.90
46758;DHT22;32509;47.750;-3.396;2024-02-16T05:47:42;11.30;99.90
46758;DHT22;32509;47.750;-3.396;2024-02-16T05:50:09;11.30;99.90
46758;DHT22;32509;47.750;-3.396;2024-02-16T05:52:35;11.30;99.90
46758;DHT22;32509;47.750;-3.396;2024-02-16T05:55:01;11.30;99.90
46758;DHT22;32509;47.750;-3.396;2024-02-16T05:57:26;11.20;99.90
46758;DHT22;32509;47.750;-3.396;2024-02-16T05:59:52;11.20;99.90
46758;DHT22;32509;47.750;-3.396;2024-02-16T06:02:18;11.20;99.90
46758;DHT22;32509;47.750;-3.396;2024-02-16T06:04:44;11.20;99.90
46758;DHT22;32509;47.750;-3.396;2024-02-16T06:07:10;11.20;99.90
46758;DHT22;32509;47.750;-3.396;2024-02-16T06:09:36;11.20;99.90
46758;DHT22;32509;47.750;-3.396;2024-02-16T06:12:06;11.20;99.90
46758;DHT22;32509;47.750;-3.396;2024-02-16T06:14:33;11.20;99.90
46758;DHT22;32509;47.750;-3.396;2024-02-16T06:16:59;11.20;99.90
46758;DHT22;32509;47.750;-3.396;2024-02-16T06:19:26;11.10;99.90
46758;DHT22;32509;47.750;-3.396;2024-02-16T06:21:53;11.20;99.90
46758;DHT22;32509;47.750;-3.396;2024-02-16T06:24:23;11.20;99.90
46758;DHT22;32509;47.750;-3.396;2024-02-16T06:26:49;11.10;99.90
46758;DHT22;32509;47.750;-3.396;2024-02-16T06:29:17;11.10;99.90
46758;DHT22;32509;47.750;-3.396;2024-02-16T06:31:42;11.10;99.90
46758;DHT22;32509;47.750;-3.396;2024-02-16T06:34:08;11.10;99.90
46758;DHT22;32509;47.750;-3.396;2024-02-16T06:36:34;11.10;99.90
46758;DHT22;32509;47.750;-3.396;2024-02-16T06:39:00;11.10;99.90
46758;DHT22;32509;47.750;-3.396;2024-02-16T06:41:27;11.10;99.90
46758;DHT22;32509;47.750;-3.396;2024-02-16T06:43:52;11.10;99.90
46758;DHT22;32509;47.750;-3.396;2024-02-16T06:46:18;11.10;99.90
46758;DHT22;32509;47.750;-3.396;2024-02-16T06:48:44;11.10;99.90
46758;DHT22;32509;47.750;-3.396;2024-02-16T06:51:10;11.00;99.90
46758;DHT22;32509;47.750;-3.396;2024-02-16T06:53:36;11.00;99.90
46758;DHT22;32509;47.750;-3.396;2024-02-16T06:56:02;10.90;99.90
46758;DHT22;32509;47.750;-3.396;2024-02-16T06:58:28;10.90;99.90
46758;DHT22;32509;47.750;-3.396;2024-02-16T07:00:54;10.90;99.90
46758;DHT22;32509;47.750;-3.396;2024-02-16T07:03:20;10.90;99.90
46758;DHT22;32509;47.750;-3.396;2024-02-16T07:05:46;10.90;99.90
46758;DHT22;32509;47.750;-3.396;2024-02-16T07:08:12;10.80;99.90
46758;DHT22;32509;47.750;-3.396;2024-02-16T07:10:40;10.80;99.90
46758;DHT22;32509;47.750;-3.396;2024-02-16T07:13:06;10.80;99.90
46758;DHT22;32509;47.750;-3.396;2024-02-16T07:15:32;10.80;99.90
46758;DHT22;32509;47.750;-3.396;2024-02-16T07:17:57;10.80;99.90
46758;DHT22;32509;47.750;-3.396;2024-02-16T07:20:23;10.80;99.90
46758;DHT22;32509;47.750;-3.396;2024-02-16T07:22:49;10.70;99.90
46758;DHT22;32509;47.750;-3.396;2024-02-16T07:25:17;10.70;99.90
46758;DHT22;32509;47.750;-3.396;2024-02-16T07:27:43;10.70;99.90
46758;DHT22;32509;47.750;-3.396;2024-02-16T07:30:09;10.70;99.90
46758;DHT22;32509;47.750;-3.396;2024-02-16T07:32:36;10.70;99.90
46758;DHT22;32509;47.750;-3.396;2024-02-16T07:35:02;10.80;99.90
46758;DHT22;32509;47.750;-3.396;2024-02-16T07:37:28;10.80;99.90
46758;DHT22;32509;47.750;-3.396;2024-02-16T07:39:54;10.90;99.90
46758;DHT22;32509;47.750;-3.396;2024-02-16T07:42:20;10.80;99.90
46758;DHT22;32509;47.750;-3.396;2024-02-16T07:44:46;10.90;99.90
46758;DHT22;32509;47.750;-3.396;2024-02-16T07:47:12;10.90;99.90
46758;DHT22;32509;47.750;-3.396;2024-02-16T07:49:41;11.00;99.90
46758;DHT22;32509;47.750;-3.396;2024-02-16T07:52:06;11.00;99.90
46758;DHT22;32509;47.750;-3.396;2024-02-16T07:54:32;11.00;99.90
46758;DHT22;32509;47.750;-3.396;2024-02-16T07:56:58;11.00;99.90
46758;DHT22;32509;47.750;-3.396;2024-02-16T07:59:25;11.10;99.90
46758;DHT22;32509;47.750;-3.396;2024-02-16T08:01:51;11.10;99.90
46758;DHT22;32509;47.750;-3.396;2024-02-16T08:04:17;11.10;99.90
46758;DHT22;32509;47.750;-3.396;2024-02-16T08:06:42;11.20;99.90
46758;DHT22;32509;47.750;-3.396;2024-02-16T08:09:08;11.20;99.90
46758;DHT22;32509;47.750;-3.396;2024-02-16T08:11:34;11.20;99.90
46758;DHT22;32509;47.750;-3.396;2024-02-16T08:14:00;11.20;99.90
46758;DHT22;32509;47.750;-3.396;2024-02-16T08:16:29;11.20;99.90
46758;DHT22;32509;47.750;-3.396;2024-02-16T08:18:55;11.30;99.90
46758;DHT22;32509;47.750;-3.396;2024-02-16T08:21:20;11.20;99.90
46758;DHT22;32509;47.750;-3.396;2024-02-16T08:23:46;11.30;99.90
46758;DHT22;32509;47.750;-3.396;2024-02-16T08:26:13;11.30;99.90
46758;DHT22;32509;47.750;-3.396;2024-02-16T08:28:38;11.30;99.90
46758;DHT22;32509;47.750;-3.396;2024-02-16T08:31:05;11.40;99.90
46758;DHT22;32509;47.750;-3.396;2024-02-16T08:33:32;11.40;99.90
46758;DHT22;32509;47.750;-3.396;2024-02-16T08:35:58;11.40;99.90
46758;DHT22;32509;47.750;-3.396;2024-02-16T08:38:25;11.50;99.90
46758;DHT22;32509;47.750;-3.396;2024-02-16T08:40:51;11.50;99.90
46758;DHT22;32509;47.750;-3.396;2024-02-16T08:43:17;11.50;99.90
46758;DHT22;32509;47.750;-3.396;2024-02-16T08:45:43;11.50;99.90
46758;DHT22;32509;47.750;-3.396;2024-02-16T08:48:09;11.50;99.90
46758;DHT22;32509;47.750;-3.396;2024-02-16T08:50:34;11.50;99.90
46758;DHT22;32509;47.750;-3.396;2024-02-16T08:53:00;11.50;99.90
46758;DHT22;32509;47.750;-3.396;2024-02-16T08:55:26;11.60;99.90
46758;DHT22;32509;47.750;-3.396;2024-02-16T08:57:52;11.60;99.90
46758;DHT22;32509;47.750;-3.396;2024-02-16T09:00:18;11.70;99.90
46758;DHT22;32509;47.750;-3.396;2024-02-16T09:02:44;11.70;99.90
46758;DHT22;32509;47.750;-3.396;2024-02-16T09:05:11;11.70;99.90
46758;DHT22;32509;47.750;-3.396;2024-02-16T09:07:37;11.70;99.90
46758;DHT22;32509;47.750;-3.396;2024-02-16T09:10:04;11.80;99.90
46758;DHT22;32509;47.750;-3.396;2024-02-16T09:12:30;11.70;99.90
46758;DHT22;32509;47.750;-3.396;2024-02-16T09:14:55;11.80;99.90
46758;DHT22;32509;47.750;-3.396;2024-02-16T09:17:21;11.80;99.90
46758;DHT22;32509;47.750;-3.396;2024-02-16T09:19:47;11.80;99.90
46758;DHT22;32509;47.750;-3.396;2024-02-16T09:22:12;11.80;99.90
46758;DHT22;32509;47.750;-3.396;2024-02-16T09:24:39;11.80;99.90
46758;DHT22;32509;47.750;-3.396;2024-02-16T09:27:06;11.90;99.90
46758;DHT22;32509;47.750;-3.396;2024-02-16T09:29:32;11.90;99.90
46758;DHT22;32509;47.750;-3.396;2024-02-16T09:31:58;11.90;99.90
46758;DHT22;32509;47.750;-3.396;2024-02-16T09:34:24;11.90;99.90
46758;DHT22;32509;47.750;-3.396;2024-02-16T09:36:50;12.00;99.90
46758;DHT22;32509;47.750;-3.396;2024-02-16T09:39:18;11.90;99.90
46758;DHT22;32509;47.750;-3.396;2024-02-16T09:41:49;12.00;99.90
46758;DHT22;32509;47.750;-3.396;2024-02-16T09:44:16;12.00;99.90
46758;DHT22;32509;47.750;-3.396;2024-02-16T09:46:43;12.00;99.90
46758;DHT22;32509;47.750;-3.396;2024-02-16T09:49:09;12.10;99.90
46758;DHT22;32509;47.750;-3.396;2024-02-16T09:51:38;12.10;99.90
46758;DHT22;32509;47.750;-3.396;2024-02-16T09:54:04;12.10;99.90
46758;DHT22;32509;47.750;-3.396;2024-02-16T09:56:30;12.10;99.90
46758;DHT22;32509;47.750;-3.396;2024-02-16T09:58:56;12.10;99.90
46758;DHT22;32509;47.750;-3.396;2024-02-16T10:01:22;12.10;99.90
46758;DHT22;32509;47.750;-3.396;2024-02-16T10:03:49;12.10;99.90
46758;DHT22;32509;47.750;-3.396;2024-02-16T10:06:16;12.10;99.90
46758;DHT22;32509;47.750;-3.396;2024-02-16T10:11:19;12.20;99.90
46758;DHT22;32509;47.750;-3.396;2024-02-16T10:14:00;12.20;99.90
46758;DHT22;32509;47.750;-3.396;2024-02-16T10:16:26;12.30;99.90
46758;DHT22;32509;47.750;-3.396;2024-02-16T10:18:57;12.30;99.90
46758;DHT22;32509;47.750;-3.396;2024-02-16T10:21:30;12.30;99.90
46758;DHT22;32509;47.750;-3.396;2024-02-16T10:24:04;12.30;99.90
46758;DHT22;32509;47.750;-3.396;2024-02-16T10:26:32;12.30;99.90
46758;DHT22;32509;47.750;-3.396;2024-02-16T10:28:58;12.40;99.90
46758;DHT22;32509;47.750;-3.396;2024-02-16T10:31:25;12.50;99.90
46758;DHT22;32509;47.750;-3.396;2024-02-16T10:33:57;12.50;99.90
46758;DHT22;32509;47.750;-3.396;2024-02-16T10:36:25;12.50;99.90
46758;DHT22;32509;47.750;-3.396;2024-02-16T10:38:55;12.50;99.90
46758;DHT22;32509;47.750;-3.396;2024-02-16T10:41:26;12.50;99.90
46758;DHT22;32509;47.750;-3.396;2024-02-16T10:43:54;12.50;99.90
46758;DHT22;32509;47.750;-3.396;2024-02-16T10:46:20;12.40;99.90
46758;DHT22;32509;47.750;-3.396;2024-02-16T10:48:46;12.40;99.90
46758;DHT22;32509;47.750;-3.396;2024-02-16T10:51:13;12.40;99.90
46758;DHT22;32509;47.750;-3.396;2024-02-16T10:53:40;12.40;99.90
46758;DHT22;32509;47.750;-3.396;2024-02-16T10:56:07;12.30;99.90
46758;DHT22;32509;47.750;-3.396;2024-02-16T10:58:32;12.30;99.90
46758;DHT22;32509;47.750;-3.396;2024-02-16T11:01:10;12.20;99.90
46758;DHT22;32509;47.750;-3.396;2024-02-16T11:03:39;12.20;99.90
46758;DHT22;32509;47.750;-3.396;2024-02-16T11:06:15;12.20;99.90
46758;DHT22;32509;47.750;-3.396;2024-02-16T11:08:42;12.20;99.90
46758;DHT22;32509;47.750;-3.396;2024-02-16T11:11:08;12.10;99.90
46758;DHT22;32509;47.750;-3.396;2024-02-16T11:13:37;12.10;99.90
46758;DHT22;32509;47.750;-3.396;2024-02-16T12:47:23;12.30;99.90
46758;DHT22;32509;47.750;-3.396;2024-02-16T12:49:48;12.20;99.90
46758;DHT22;32509;47.750;-3.396;2024-02-16T12:52:20;12.30;99.90
46758;DHT22;32509;47.750;-3.396;2024-02-16T12:54:48;12.40;99.90
46758;DHT22;32509;47.750;-3.396;2024-02-16T12:57:14;12.40;99.90
46758;DHT22;32509;47.750;-3.396;2024-02-16T12:59:39;12.60;99.90
46758;DHT22;32509;47.750;-3.396;2024-02-16T13:02:05;12.60;99.90
46758;DHT22;32509;47.750;-3.396;2024-02-16T13:04:31;12.60;99.90
46758;DHT22;32509;47.750;-3.396;2024-02-16T13:06:58;12.70;99.90
46758;DHT22;32509;47.750;-3.396;2024-02-16T13:09:23;12.80;99.90
46758;DHT22;32509;47.750;-3.396;2024-02-16T13:11:50;12.80;99.90
46758;DHT22;32509;47.750;-3.396;2024-02-16T13:14:21;12.80;99.90
46758;DHT22;32509;47.750;-3.396;2024-02-16T13:16:46;12.80;99.90
46758;DHT22;32509;47.750;-3.396;2024-02-16T13:19:13;12.80;99.90
46758;DHT22;32509;47.750;-3.396;2024-02-16T13:21:39;12.80;99.90
46758;DHT22;32509;47.750;-3.396;2024-02-16T13:24:05;12.80;99.90
46758;DHT22;32509;47.750;-3.396;2024-02-16T13:26:31;12.80;99.90
46758;DHT22;32509;47.750;-3.396;2024-02-16T13:28:57;12.80;99.90
46758;DHT22;32509;47.750;-3.396;2024-02-16T13:31:24;12.80;99.90
46758;DHT22;32509;47.750;-3.396;2024-02-16T13:33:54;12.80;99.90
46758;DHT22;32509;47.750;-3.396;2024-02-16T13:36:19;12.80;99.90
46758;DHT22;32509;47.750;-3.396;2024-02-16T13:38:45;12.90;99.90
46758;DHT22;32509;47.750;-3.396;2024-02-16T13:41:11;12.90;99.90
46758;DHT22;32509;47.750;-3.396;2024-02-16T13:43:37;12.90;99.90
46758;DHT22;32509;47.750;-3.396;2024-02-16T13:46:02;12.90;99.90
46758;DHT22;32509;47.750;-3.396;2024-02-16T13:48:29;13.00;99.90
46758;DHT22;32509;47.750;-3.396;2024-02-16T13:50:56;13.00;99.90
46758;DHT22;32509;47.750;-3.396;2024-02-16T13:53:22;13.00;99.90
46758;DHT22;32509;47.750;-3.396;2024-02-16T13:55:49;13.00;99.90
46758;DHT22;32509;47.750;-3.396;2024-02-16T13:58:14;12.90;99.90
46758;DHT22;32509;47.750;-3.396;2024-02-16T14:00:40;12.90;99.90
46758;DHT22;32509;47.750;-3.396;2024-02-16T14:03:08;12.90;99.90
46758;DHT22;32509;47.750;-3.396;2024-02-16T14:05:39;12.80;99.90
46758;DHT22;32509;47.750;-3.396;2024-02-16T14:08:06;12.80;99.90
46758;DHT22;32509;47.750;-3.396;2024-02-16T14:10:33;12.80;99.90
46758;DHT22;32509;47.750;-3.396;2024-02-16T14:12:58;12.80;99.90
46758;DHT22;32509;47.750;-3.396;2024-02-16T14:15:24;12.80;99.90
46758;DHT22;32509;47.750;-3.396;2024-02-16T14:17:50;12.80;99.90
46758;DHT22;32509;47.750;-3.396;2024-02-16T14:20:16;12.80;99.90
46758;DHT22;32509;47.750;-3.396;2024-02-16T14:22:42;12.80;99.90
46758;DHT22;32509;47.750;-3.396;2024-02-16T14:25:07;12.80;99.90
46758;DHT22;32509;47.750;-3.396;2024-02-16T14:27:36;12.80;99.90
46758;DHT22;32509;47.750;-3.396;2024-02-16T14:30:04;12.80;99.90
46758;DHT22;32509;47.750;-3.396;2024-02-16T14:32:30;12.80;99.90
46758;DHT22;32509;47.750;-3.396;2024-02-16T14:34:56;12.80;99.90
46758;DHT22;32509;47.750;-3.396;2024-02-16T14:37:21;12.80;99.90
46758;DHT22;32509;47.750;-3.396;2024-02-16T14:39:47;12.90;99.90
46758;DHT22;32509;47.750;-3.396;2024-02-16T14:42:14;12.80;99.90
46758;DHT22;32509;47.750;-3.396;2024-02-16T14:44:40;12.80;99.90
46758;DHT22;32509;47.750;-3.396;2024-02-16T14:47:06;12.80;99.90
46758;DHT22;32509;47.750;-3.396;2024-02-16T14:49:31;12.80;99.90
46758;DHT22;32509;47.750;-3.396;2024-02-16T14:51:57;12.80;99.90
46758;DHT22;32509;47.750;-3.396;2024-02-16T14:54:23;12.70;99.90
46758;DHT22;32509;47.750;-3.396;2024-02-16T14:56:52;12.70;99.90
46758;DHT22;32509;47.750;-3.396;2024-02-16T14:59:18;12.70;99.90
46758;DHT22;32509;47.750;-3.396;2024-02-16T15:01:44;12.70;99.90
46758;DHT22;32509;47.750;-3.396;2024-02-16T15:04:11;12.80;99.90
46758;DHT22;32509;47.750;-3.396;2024-02-16T15:06:36;12.70;99.90
46758;DHT22;32509;47.750;-3.396;2024-02-16T15:09:02;12.70;99.90
46758;DHT22;32509;47.750;-3.396;2024-02-16T15:11:32;12.70;99.90
46758;DHT22;32509;47.750;-3.396;2024-02-16T15:13:58;12.70;99.90
46758;DHT22;32509;47.750;-3.396;2024-02-16T15:16:23;12.60;99.90
46758;DHT22;32509;47.750;-3.396;2024-02-16T15:18:49;12.60;99.90
46758;DHT22;32509;47.750;-3.396;2024-02-16T15:21:15;12.70;99.90
46758;DHT22;32509;47.750;-3.396;2024-02-16T15:23:41;12.60;99.90
46758;DHT22;32509;47.750;-3.396;2024-02-16T15:26:10;12.60;99.90
46758;DHT22;32509;47.750;-3.396;2024-02-16T15:28:36;12.70;99.90
46758;DHT22;32509;47.750;-3.396;2024-02-16T15:31:03;12.70;99.90
46758;DHT22;32509;47.750;-3.396;2024-02-16T15:33:29;12.70;99.90
46758;DHT22;32509;47.750;-3.396;2024-02-16T15:35:55;12.60;99.90
46758;DHT22;32509;47.750;-3.396;2024-02-16T15:38:26;12.70;99.90
46758;DHT22;32509;47.750;-3.396;2024-02-16T15:40:52;12.70;99.90
46758;DHT22;32509;47.750;-3.396;2024-02-16T15:43:18;12.70;99.90
46758;DHT22;32509;47.750;-3.396;2024-02-16T15:45:44;12.70;99.90
46758;DHT22;32509;47.750;-3.396;2024-02-16T15:48:12;12.70;99.90
46758;DHT22;32509;47.750;-3.396;2024-02-16T15:50:40;12.70;99.90
46758;DHT22;32509;47.750;-3.396;2024-02-16T15:53:06;12.70;99.90
46758;DHT22;32509;47.750;-3.396;2024-02-16T15:55:32;12.70;99.90
46758;DHT22;32509;47.750;-3.396;2024-02-16T15:57:58;12.70;99.90
46758;DHT22;32509;47.750;-3.396;2024-02-16T16:00:24;12.70;99.90
46758;DHT22;32509;47.750;-3.396;2024-02-16T16:02:51;12.70;99.90
46758;DHT22;32509;47.750;-3.396;2024-02-16T16:05:17;12.70;99.90
46758;DHT22;32509;47.750;-3.396;2024-02-16T16:07:42;12.70;99.90
46758;DHT22;32509;47.750;-3.396;2024-02-16T16:10:08;12.70;99.90
46758;DHT22;32509;47.750;-3.396;2024-02-16T16:12:35;12.70;99.90
46758;DHT22;32509;47.750;-3.396;2024-02-16T16:15:00;12.70;99.90
46758;DHT22;32509;47.750;-3.396;2024-02-16T16:17:26;12.80;99.90
46758;DHT22;32509;47.750;-3.396;2024-02-16T16:19:52;12.80;99.90
46758;DHT22;32509;47.750;-3.396;2024-02-16T16:22:18;12.80;99.90
46758;DHT22;32509;47.750;-3.396;2024-02-16T16:24:44;12.80;99.90
46758;DHT22;32509;47.750;-3.396;2024-02-16T16:27:10;12.80;99.90
46758;DHT22;32509;47.750;-3.396;2024-02-16T16:29:38;12.80;99.90
46758;DHT22;32509;47.750;-3.396;2024-02-16T16:32:08;12.70;99.90
46758;DHT22;32509;47.750;-3.396;2024-02-16T16:34:34;12.70;99.90
46758;DHT22;32509;47.750;-3.396;2024-02-16T16:37:00;12.70;99.90
46758;DHT22;32509;47.750;-3.396;2024-02-16T16:39:26;12.70;99.90
46758;DHT22;32509;47.750;-3.396;2024-02-16T16:41:52;12.70;99.90
46758;DHT22;32509;47.750;-3.396;2024-02-16T16:44:19;12.60;99.90